createdAt,value
2023-01-18T00:01:22.274Z,6.90
2023-01-18T00:03:50.435Z,6.93
2023-01-18T00:06:18.661Z,6.92
2023-01-18T00:08:46.820Z,6.89
2023-01-18T00:11:17.148Z,6.91
2023-01-18T00:13:45.642Z,6.91
2023-01-18T00:16:16.234Z,6.94
2023-01-18T00:18:50.866Z,6.96
2023-01-18T00:21:19.020Z,7.01
2023-01-18T00:23:47.064Z,7.06
2023-01-18T00:26:15.330Z,7.10
2023-01-18T00:28:43.670Z,7.12
2023-01-18T00:31:16.847Z,7.12
2023-01-18T00:33:49.907Z,7.13
2023-01-18T00:36:18.777Z,7.07
2023-01-18T00:38:52.148Z,7.04
2023-01-18T00:41:21.817Z,6.98
2023-01-18T00:43:54.051Z,6.96
2023-01-18T00:46:27.356Z,6.94
2023-01-18T00:48:57.340Z,6.91
2023-01-18T00:51:25.681Z,6.88
2023-01-18T00:53:54.021Z,6.86
2023-01-18T00:56:23.300Z,6.86
2023-01-18T00:58:51.545Z,6.84
2023-01-18T01:01:19.941Z,6.79
2023-01-18T01:04:06.892Z,6.76
2023-01-18T01:06:45.166Z,6.74
2023-01-18T01:09:20.168Z,6.76
2023-01-18T01:12:07.716Z,6.78
2023-01-18T01:14:58.555Z,6.84
2023-01-18T01:17:47.992Z,6.91
2023-01-18T01:20:35.130Z,6.97
2023-01-18T01:23:33.897Z,7.00
2023-01-18T01:26:06.408Z,7.00
2023-01-18T01:28:41.813Z,7.01
2023-01-18T01:31:14.557Z,7.01
2023-01-18T01:33:43.312Z,7.04
2023-01-18T01:36:15.881Z,7.07
2023-01-18T01:38:44.456Z,7.10
2023-01-18T01:41:25.452Z,7.17
2023-01-18T01:43:58.773Z,7.23
2023-01-18T01:46:59.774Z,7.27
2023-01-18T01:49:40.226Z,7.29
2023-01-18T01:52:11.344Z,7.32
2023-01-18T01:54:45.628Z,7.34
2023-01-18T01:57:16.243Z,7.32
2023-01-18T01:59:52.340Z,7.28
2023-01-18T02:02:20.726Z,7.23
2023-01-18T02:04:53.913Z,7.16
2023-01-18T02:07:23.699Z,7.06
2023-01-18T02:09:53.788Z,7.00
2023-01-18T02:12:27.184Z,6.96
2023-01-18T02:15:00.277Z,6.91
2023-01-18T02:17:47.229Z,6.84
2023-01-18T02:20:55.800Z,6.74
2023-01-18T02:23:46.667Z,6.63
2023-01-18T02:26:54.303Z,6.58
2023-01-18T02:29:26.954Z,6.53
2023-01-18T02:32:00.969Z,6.49
2023-01-18T02:34:38.767Z,6.49
2023-01-18T02:37:48.734Z,6.50
2023-01-18T02:40:23.065Z,6.50
2023-01-18T02:43:14.223Z,6.49
2023-01-18T02:46:07.699Z,6.49
2023-01-18T02:48:39.197Z,6.52
2023-01-18T02:51:10.888Z,6.55
2023-01-18T02:53:43.292Z,6.55
2023-01-18T02:56:17.075Z,6.52
2023-01-18T02:58:49.477Z,6.49
2023-01-18T03:01:27.214Z,6.50
2023-01-18T03:04:01.592Z,6.49
2023-01-18T03:06:30.221Z,6.46
2023-01-18T03:09:03.282Z,6.45
2023-01-18T03:11:45.704Z,6.45
2023-01-18T03:14:32.753Z,6.45
2023-01-18T03:17:12.111Z,6.41
2023-01-18T03:20:09.593Z,6.35
2023-01-18T03:23:02.357Z,6.25
2023-01-18T03:25:37.863Z,6.17
2023-01-18T03:28:29.607Z,6.11
2023-01-18T03:31:19.812Z,6.03
2023-01-18T03:33:59.367Z,5.94
2023-01-18T03:36:32.279Z,5.91
2023-01-18T03:39:05.368Z,5.89
2023-01-18T03:41:39.354Z,5.91
2023-01-18T03:44:29.640Z,5.93
2023-01-18T03:46:58.180Z,5.95
2023-01-18T03:49:27.611Z,5.97
2023-01-18T03:52:20.029Z,6.01
2023-01-18T03:55:02.406Z,6.05
2023-01-18T03:57:38.779Z,6.05
2023-01-18T04:00:09.427Z,6.08
2023-01-18T04:02:45.252Z,6.11
2023-01-18T04:05:13.717Z,6.09
2023-01-18T04:07:42.412Z,6.09
2023-01-18T04:10:11.481Z,6.11
2023-01-18T04:12:39.775Z,6.09
2023-01-18T04:15:08.327Z,6.03
2023-01-18T04:17:36.431Z,6.01
2023-01-18T04:20:04.942Z,5.98
2023-01-18T04:22:33.241Z,5.95
2023-01-18T04:25:01.517Z,5.95
2023-01-18T04:27:29.688Z,5.95
2023-01-18T04:29:58.728Z,5.93
2023-01-18T04:32:28.934Z,5.93
2023-01-18T04:34:57.413Z,5.91
2023-01-18T04:37:31.134Z,5.87
2023-01-18T04:39:59.273Z,5.82
2023-01-18T04:42:30.574Z,5.76
2023-01-18T04:44:59.995Z,5.72
2023-01-18T04:47:29.195Z,5.68
2023-01-18T04:50:01.098Z,5.64
2023-01-18T04:52:32.367Z,5.62
2023-01-18T04:55:00.496Z,5.61
2023-01-18T04:57:29.040Z,5.62
2023-01-18T04:59:57.314Z,5.63
2023-01-18T05:02:25.488Z,5.63
2023-01-18T05:04:53.851Z,5.65
2023-01-18T05:07:25.284Z,5.66
2023-01-18T05:09:58.549Z,5.67
2023-01-18T05:12:28.584Z,5.68
2023-01-18T05:14:57.142Z,5.66
2023-01-18T05:17:30.506Z,5.66
2023-01-18T05:19:58.623Z,5.66
2023-01-18T05:22:28.236Z,5.67
2023-01-18T05:24:56.383Z,5.68
2023-01-18T05:27:24.750Z,5.72
2023-01-18T05:29:52.916Z,5.74
2023-01-18T05:32:20.985Z,5.73
2023-01-18T05:34:49.635Z,5.76
2023-01-18T05:37:20.231Z,5.79
2023-01-18T05:39:48.424Z,5.79
2023-01-18T05:42:19.890Z,5.76
2023-01-18T05:44:47.964Z,5.73
2023-01-18T05:47:16.245Z,5.69
2023-01-18T05:49:44.267Z,5.64
2023-01-18T05:52:15.139Z,5.63
2023-01-18T05:54:46.152Z,5.63
2023-01-18T05:57:14.543Z,5.65
2023-01-18T05:59:42.755Z,5.68
2023-01-18T06:02:11.154Z,5.72
2023-01-18T06:04:39.472Z,5.78
2023-01-18T06:07:09.414Z,5.85
2023-01-18T06:09:37.793Z,5.91
2023-01-18T06:12:06.339Z,5.96
2023-01-18T06:14:34.536Z,6.04
2023-01-18T06:17:02.822Z,6.11
2023-01-18T06:19:33.371Z,6.16
2023-01-18T06:22:04.592Z,6.19
2023-01-18T06:24:32.829Z,6.23
2023-01-18T06:27:03.198Z,6.26
2023-01-18T06:29:31.520Z,6.31
2023-01-18T06:31:59.747Z,6.37
2023-01-18T06:34:30.195Z,6.42
2023-01-18T06:36:58.670Z,6.46
2023-01-18T06:39:26.742Z,6.53
2023-01-18T06:41:55.166Z,6.57
2023-01-18T06:44:23.485Z,6.63
2023-01-18T06:46:52.276Z,6.67
2023-01-18T06:49:20.414Z,6.73
2023-01-18T06:51:51.425Z,6.76
2023-01-18T06:54:21.780Z,6.80
2023-01-18T06:56:49.869Z,6.83
2023-01-18T06:59:18.132Z,6.86
2023-01-18T07:01:47.031Z,6.88
2023-01-18T07:04:18.370Z,6.88
2023-01-18T07:06:46.698Z,6.86
2023-01-18T07:09:14.982Z,6.85
2023-01-18T07:11:43.368Z,6.84
2023-01-18T07:14:12.452Z,6.85
2023-01-18T07:16:41.292Z,6.88
2023-01-18T07:19:09.820Z,6.91
2023-01-18T07:21:41.211Z,6.94
2023-01-18T07:24:09.436Z,7.00
2023-01-18T07:26:37.705Z,7.05
2023-01-18T07:29:06.006Z,7.09
2023-01-18T07:31:34.124Z,7.13
2023-01-18T07:34:02.478Z,7.18
2023-01-18T07:36:30.661Z,7.24
2023-01-18T07:39:01.275Z,7.29
2023-01-18T07:41:31.005Z,7.35
2023-01-18T07:43:59.925Z,7.41
2023-01-18T07:46:28.181Z,7.46
2023-01-18T07:48:58.951Z,7.50
2023-01-18T07:51:30.727Z,7.55
2023-01-18T07:53:58.969Z,7.60
2023-01-18T07:56:27.308Z,7.66
2023-01-18T07:58:55.849Z,7.67
2023-01-18T08:01:24.421Z,7.65
2023-01-18T08:03:54.786Z,7.66
2023-01-18T08:06:25.304Z,7.62
2023-01-18T08:08:57.225Z,7.59
2023-01-18T08:11:25.757Z,7.56
2023-01-18T08:13:53.953Z,7.54
2023-01-18T08:16:22.333Z,7.52
2023-01-18T08:18:51.501Z,7.51
2023-01-18T08:21:19.615Z,7.49
2023-01-18T08:23:47.722Z,7.52
2023-01-18T08:26:16.070Z,7.55
2023-01-18T08:28:44.903Z,7.56
2023-01-18T08:31:19.759Z,7.61
2023-01-18T08:33:50.021Z,7.69
2023-01-18T08:36:21.081Z,7.77
2023-01-18T08:38:55.351Z,7.86
2023-01-18T08:41:28.481Z,7.98
2023-01-18T08:43:58.442Z,8.11
2023-01-18T08:46:26.627Z,8.23
2023-01-18T08:48:57.879Z,8.36
2023-01-18T08:51:26.232Z,8.48
2023-01-18T08:53:56.723Z,8.59
2023-01-18T08:56:31.335Z,8.69
2023-01-18T08:59:00.199Z,8.79
2023-01-18T09:01:31.001Z,8.88
2023-01-18T09:03:59.233Z,8.98
2023-01-18T09:06:32.144Z,9.08
2023-01-18T09:09:01.257Z,9.17
2023-01-18T09:11:29.319Z,9.24
2023-01-18T09:14:02.204Z,9.32
2023-01-18T09:16:31.839Z,9.41
2023-01-18T09:19:06.353Z,9.49
2023-01-18T09:21:34.881Z,9.58
2023-01-18T09:24:03.028Z,9.65
2023-01-18T09:26:31.292Z,9.70
2023-01-18T09:28:59.655Z,9.73
2023-01-18T09:31:28.699Z,9.75
2023-01-18T09:34:09.583Z,9.77
2023-01-18T09:36:46.528Z,9.81
2023-01-18T09:39:14.739Z,9.82
2023-01-18T09:41:47.017Z,9.85
2023-01-18T09:44:25.098Z,9.85
2023-01-18T09:47:03.109Z,9.84
2023-01-18T09:50:06.027Z,9.81
2023-01-18T09:53:04.277Z,9.81
2023-01-18T09:55:46.451Z,9.82
2023-01-18T09:58:27.147Z,9.82
2023-01-18T10:01:05.604Z,9.84
2023-01-18T10:04:06.666Z,9.87
2023-01-18T10:06:46.922Z,9.91
2023-01-18T10:09:18.300Z,9.95
2023-01-18T10:11:51.168Z,10.02
2023-01-18T10:14:38.528Z,10.09
2023-01-18T10:17:21.242Z,10.15
2023-01-18T10:19:50.961Z,10.19
2023-01-18T10:22:25.730Z,10.25
2023-01-18T10:25:14.705Z,10.34
2023-01-18T10:28:04.378Z,10.40
2023-01-18T10:31:04.094Z,10.44
2023-01-18T10:33:41.012Z,10.46
2023-01-18T10:36:12.482Z,10.47
2023-01-18T10:38:41.434Z,10.43
2023-01-18T10:41:20.216Z,10.41
2023-01-18T10:43:50.544Z,10.37
2023-01-18T10:46:21.772Z,10.41
2023-01-18T10:48:52.481Z,10.48
2023-01-18T10:51:35.296Z,10.61
2023-01-18T10:54:25.880Z,10.71
2023-01-18T10:57:05.705Z,10.84
2023-01-18T10:59:39.970Z,10.94
2023-01-18T11:02:23.585Z,11.04
2023-01-18T11:04:57.577Z,11.10
2023-01-18T11:07:28.016Z,11.14
2023-01-18T11:09:59.573Z,11.17
2023-01-18T11:12:44.368Z,11.17
2023-01-18T11:15:15.400Z,11.16
2023-01-18T11:18:00.837Z,11.07
2023-01-18T11:20:41.031Z,11.05
2023-01-18T11:23:14.889Z,10.97
2023-01-18T11:26:00.839Z,10.92
2023-01-18T11:29:06.683Z,10.83
2023-01-18T11:31:48.579Z,10.75
2023-01-18T11:34:32.214Z,10.70
2023-01-18T11:37:01.548Z,10.69
2023-01-18T11:39:35.423Z,10.79
2023-01-18T11:42:31.826Z,10.87
2023-01-18T11:45:23.725Z,11.04
2023-01-18T11:47:51.958Z,11.11
2023-01-18T11:50:38.522Z,11.06
2023-01-18T11:53:30.918Z,11.01
2023-01-18T11:56:06.819Z,10.84
2023-01-18T11:58:36.148Z,10.70
2023-01-18T12:01:25.914Z,10.47
2023-01-18T12:04:13.969Z,10.16
2023-01-18T12:06:54.776Z,9.91
2023-01-18T12:09:25.680Z,9.66
2023-01-18T12:12:17.348Z,9.49
2023-01-18T12:15:04.811Z,9.38
2023-01-18T12:18:07.786Z,9.31
2023-01-18T12:21:09.314Z,9.31
2023-01-18T12:23:57.488Z,9.32
2023-01-18T12:26:45.826Z,9.31
2023-01-18T12:29:49.056Z,9.28
2023-01-18T12:32:50.424Z,9.25
2023-01-18T12:35:32.497Z,9.23
2023-01-18T12:38:13.649Z,9.20
2023-01-18T12:41:11.246Z,9.18
2023-01-18T12:44:00.515Z,9.24
2023-01-18T12:46:34.540Z,9.33
2023-01-18T12:49:19.073Z,9.43
2023-01-18T12:51:54.296Z,9.47
2023-01-18T12:54:43.318Z,9.48
2023-01-18T12:57:13.833Z,9.49
2023-01-18T12:59:47.655Z,9.48
2023-01-18T13:02:35.293Z,9.42
2023-01-18T13:05:33.937Z,9.39
2023-01-18T13:08:16.990Z,9.34
2023-01-18T13:10:46.200Z,9.34
2023-01-18T13:13:28.961Z,9.33
2023-01-18T13:16:10.141Z,9.42
2023-01-18T13:19:03.801Z,9.52
2023-01-18T13:21:38.594Z,9.63
2023-01-18T13:24:41.463Z,9.63
2023-01-18T13:27:12.836Z,9.65
2023-01-18T13:29:42.791Z,9.65
2023-01-18T13:32:37.941Z,9.57
2023-01-18T13:35:25.841Z,9.52
2023-01-18T13:38:02.160Z,9.45
2023-01-18T13:40:43.837Z,9.34
2023-01-18T13:43:32.841Z,9.27
2023-01-18T13:46:10.359Z,9.23
2023-01-18T13:48:51.067Z,9.18
2023-01-18T13:51:39.716Z,9.19
2023-01-18T13:54:15.431Z,9.20
2023-01-18T13:57:24.694Z,9.20
2023-01-18T13:59:58.637Z,9.23
2023-01-18T14:02:34.487Z,9.23
2023-01-18T14:05:32.297Z,9.21
2023-01-18T14:08:02.479Z,9.23
2023-01-18T14:10:36.625Z,9.24
2023-01-18T14:13:14.233Z,9.22
2023-01-18T14:15:53.922Z,9.21
2023-01-18T14:18:25.288Z,9.20
2023-01-18T14:21:19.677Z,9.20
2023-01-18T14:24:09.221Z,9.16
2023-01-18T14:26:40.282Z,9.13
2023-01-18T14:29:33.960Z,9.09
2023-01-18T14:32:08.143Z,9.00
2023-01-18T14:34:44.854Z,8.94
2023-01-18T14:37:33.792Z,8.89
2023-01-18T14:40:04.512Z,8.85
2023-01-18T14:42:35.043Z,8.81
2023-01-18T14:45:04.867Z,8.76
2023-01-18T14:47:34.692Z,8.74
2023-01-18T14:50:07.706Z,8.71
2023-01-18T14:52:37.369Z,8.68
2023-01-18T14:55:07.446Z,8.65
2023-01-18T14:57:35.668Z,8.63
2023-01-18T15:00:24.978Z,8.62
2023-01-18T15:02:53.887Z,8.61
2023-01-18T15:05:29.097Z,8.59
2023-01-18T15:07:59.361Z,8.57
2023-01-18T15:10:27.749Z,8.55
2023-01-18T15:12:59.134Z,8.51
2023-01-18T15:15:33.317Z,8.48
2023-01-18T15:18:15.488Z,8.43
2023-01-18T15:20:57.316Z,8.38
2023-01-18T15:23:27.162Z,8.32
2023-01-18T15:25:56.751Z,8.25
2023-01-18T15:28:36.477Z,8.17
2023-01-18T15:31:16.258Z,8.08
2023-01-18T15:33:44.940Z,7.98
2023-01-18T15:36:14.191Z,7.91
2023-01-18T15:38:42.447Z,7.84
2023-01-18T15:41:14.849Z,7.76
2023-01-18T15:43:44.982Z,7.66
2023-01-18T15:46:16.228Z,7.53
2023-01-18T15:48:51.627Z,7.44
2023-01-18T15:51:43.302Z,7.36
2023-01-18T15:54:19.405Z,7.29
2023-01-18T15:56:48.684Z,7.26
2023-01-18T15:59:22.862Z,7.22
2023-01-18T16:02:13.673Z,7.21
2023-01-18T16:04:42.138Z,7.18
2023-01-18T16:07:25.907Z,7.17
2023-01-18T16:10:31.196Z,7.12
2023-01-18T16:13:36.831Z,7.11
2023-01-18T16:16:14.097Z,7.12
2023-01-18T16:19:07.489Z,7.11
2023-01-18T16:21:42.722Z,7.09
2023-01-18T16:24:26.432Z,7.08
2023-01-18T16:26:55.448Z,7.06
2023-01-18T16:29:23.752Z,7.06
2023-01-18T16:31:52.099Z,7.08
2023-01-18T16:34:24.211Z,7.09
2023-01-18T16:36:54.760Z,7.09
2023-01-18T16:39:24.576Z,7.08
2023-01-18T16:41:57.385Z,7.07
2023-01-18T16:44:26.244Z,7.04
2023-01-18T16:46:54.491Z,6.99
2023-01-18T16:49:22.597Z,6.94
2023-01-18T16:51:50.774Z,6.88
2023-01-18T16:54:19.606Z,6.82
2023-01-18T16:56:48.714Z,6.76
2023-01-18T16:59:45.028Z,6.70
2023-01-18T17:02:55.374Z,6.59
2023-01-18T17:05:23.561Z,6.53
2023-01-18T17:07:54.688Z,6.45
2023-01-18T17:10:40.610Z,6.40
2023-01-18T17:13:08.855Z,6.34
2023-01-18T17:15:41.488Z,6.32
2023-01-18T17:18:27.957Z,6.27
2023-01-18T17:20:56.494Z,6.25
2023-01-18T17:23:25.778Z,6.21
2023-01-18T17:26:00.599Z,6.19
2023-01-18T17:28:32.630Z,6.18
2023-01-18T17:31:01.517Z,6.17
2023-01-18T17:33:30.702Z,6.16
2023-01-18T17:35:59.198Z,6.18
2023-01-18T17:40:58.936Z,6.19
2023-01-18T17:43:34.947Z,6.22
2023-01-18T17:46:07.143Z,6.26
2023-01-18T17:48:35.482Z,6.26
2023-01-18T17:51:12.063Z,6.29
2023-01-18T17:53:41.413Z,6.31
2023-01-18T17:56:18.937Z,6.31
2023-01-18T17:58:49.319Z,6.31
2023-01-18T18:01:18.541Z,6.31
2023-01-18T18:03:51.354Z,6.29
2023-01-18T18:06:30.546Z,6.28
2023-01-18T18:09:03.639Z,6.24
2023-01-18T18:11:35.074Z,6.22
2023-01-18T18:14:03.314Z,6.21
2023-01-18T18:16:32.811Z,6.19
2023-01-18T18:19:09.085Z,6.20
2023-01-18T18:21:37.290Z,6.22
2023-01-18T18:24:05.716Z,6.24
2023-01-18T18:26:34.524Z,6.26
2023-01-18T18:29:03.186Z,6.26
2023-01-18T18:31:31.781Z,6.26
2023-01-18T18:34:00.439Z,6.28
2023-01-18T18:36:28.819Z,6.30
2023-01-18T18:39:01.461Z,6.31
2023-01-18T18:41:29.804Z,6.34
2023-01-18T18:43:57.954Z,6.35
2023-01-18T18:46:31.335Z,6.35
2023-01-18T18:48:59.593Z,6.36
2023-01-18T18:51:27.929Z,6.41
2023-01-18T18:53:56.575Z,6.42
2023-01-18T18:56:24.958Z,6.39
2023-01-18T18:58:53.280Z,6.37
2023-01-18T19:01:29.766Z,6.38
2023-01-18T19:03:59.097Z,6.31
2023-01-18T19:06:27.899Z,6.24
2023-01-18T19:08:57.337Z,6.22
2023-01-18T19:11:31.196Z,6.18
2023-01-18T19:13:59.557Z,6.14
2023-01-18T19:16:27.895Z,6.10
2023-01-18T19:18:56.065Z,6.06
2023-01-18T19:21:24.227Z,6.04
2023-01-18T19:23:52.321Z,6.01
2023-01-18T19:26:23.210Z,5.98
2023-01-18T19:28:51.896Z,5.95
2023-01-18T19:31:20.085Z,5.88
2023-01-18T19:33:48.355Z,5.86
2023-01-18T19:36:16.921Z,5.83
2023-01-18T19:38:52.678Z,5.82
2023-01-18T19:41:25.949Z,5.81
2023-01-18T19:43:54.124Z,5.84
2023-01-18T19:46:22.458Z,5.90
2023-01-18T19:48:56.192Z,5.95
2023-01-18T19:51:24.323Z,6.02
2023-01-18T19:53:53.631Z,6.09
2023-01-18T19:56:25.774Z,6.16
2023-01-18T19:58:57.347Z,6.23
2023-01-18T20:01:36.276Z,6.31
2023-01-18T20:04:06.699Z,6.38
2023-01-18T20:06:37.555Z,6.44
2023-01-18T20:09:17.836Z,6.52
2023-01-18T20:11:47.310Z,6.58
2023-01-18T20:14:15.845Z,6.65
2023-01-18T20:16:46.175Z,6.71
2023-01-18T20:19:15.536Z,6.72
2023-01-18T20:21:43.746Z,6.66
2023-01-18T20:24:11.924Z,6.64
2023-01-18T20:26:41.726Z,6.59
2023-01-18T20:29:10.190Z,6.54
2023-01-18T20:31:39.404Z,6.52
2023-01-18T20:34:10.998Z,6.51
2023-01-18T20:36:39.127Z,6.51
2023-01-18T20:39:10.526Z,6.50
2023-01-18T20:41:38.732Z,6.49
2023-01-18T20:44:07.183Z,6.51
2023-01-18T20:46:35.747Z,6.53
2023-01-18T20:49:04.786Z,6.56
2023-01-18T20:51:33.616Z,6.61
2023-01-18T20:54:02.291Z,6.64
2023-01-18T20:56:32.022Z,6.67
2023-01-18T20:59:00.192Z,6.71
2023-01-18T21:01:37.415Z,6.75
2023-01-18T21:04:05.833Z,6.78
2023-01-18T21:06:34.420Z,6.81
2023-01-18T21:09:02.856Z,6.83
2023-01-18T21:11:31.820Z,6.85
2023-01-18T21:13:59.990Z,6.87
2023-01-18T21:16:28.418Z,6.86
2023-01-18T21:18:59.236Z,6.84
2023-01-18T21:21:31.998Z,6.83
2023-01-18T21:24:00.242Z,6.84
2023-01-18T21:26:29.107Z,6.83
2023-01-18T21:28:57.247Z,6.82
2023-01-18T21:31:25.294Z,6.79
2023-01-18T21:33:54.287Z,6.75
2023-01-18T21:36:23.180Z,6.64
2023-01-18T21:38:51.549Z,6.59
2023-01-18T21:41:38.404Z,6.54
2023-01-18T21:44:30.289Z,6.52
2023-01-18T21:47:01.659Z,6.47
2023-01-18T21:52:57.906Z,6.39
2023-01-18T21:55:29.228Z,6.39
2023-01-18T21:58:15.916Z,6.38
2023-01-18T22:00:44.161Z,6.38
2023-01-18T22:03:15.338Z,6.37
2023-01-18T22:05:46.724Z,6.32
2023-01-18T22:08:14.941Z,6.32
2023-01-18T22:10:47.655Z,6.28
2023-01-18T22:13:18.075Z,6.26
2023-01-18T22:15:49.145Z,6.26
2023-01-18T22:18:17.338Z,6.26
2023-01-18T22:20:55.227Z,6.25
2023-01-18T22:23:23.362Z,6.16
2023-01-18T22:25:55.390Z,6.10
2023-01-18T22:28:26.231Z,5.99
2023-01-18T22:30:54.666Z,5.91
2023-01-18T22:33:22.860Z,5.89
2023-01-18T22:35:57.444Z,5.85
2023-01-18T22:38:25.848Z,5.83
2023-01-18T22:41:13.951Z,5.85
2023-01-18T22:43:42.873Z,5.87
2023-01-18T22:46:14.220Z,5.86
2023-01-18T22:48:43.676Z,5.85
2023-01-18T22:51:17.246Z,5.86
2023-01-18T22:53:49.544Z,5.90
2023-01-18T22:56:20.879Z,5.92
2023-01-18T22:58:50.203Z,5.96
2023-01-18T23:01:27.142Z,5.97
2023-01-18T23:03:56.106Z,5.98
2023-01-18T23:06:24.626Z,5.97
2023-01-18T23:08:54.362Z,5.99
2023-01-18T23:11:25.311Z,5.99
2023-01-18T23:14:14.628Z,6.02
2023-01-18T23:17:02.735Z,6.02
2023-01-18T23:19:31.244Z,6.01
2023-01-18T23:21:59.915Z,5.95
2023-01-18T23:24:28.103Z,5.93
2023-01-18T23:26:56.281Z,5.88
2023-01-18T23:29:24.358Z,5.83
2023-01-18T23:31:52.463Z,5.79
2023-01-18T23:34:20.592Z,5.70
2023-01-18T23:36:51.246Z,5.67
2023-01-18T23:39:38.300Z,5.65
2023-01-18T23:42:25.036Z,5.64
2023-01-18T23:45:11.718Z,5.62
2023-01-18T23:47:59.411Z,5.60
2023-01-18T23:50:46.513Z,5.58
2023-01-18T23:53:33.275Z,5.58
2023-01-18T23:56:01.266Z,5.58
2023-01-18T23:58:29.453Z,5.56
